Arklow Mill — EIJD9 — position and weather

sailwx.info

Track history (hours):
 
Tides and Currents Weather Stations Pressure Air Temp Water Temp Dewpoint Dewpoint Depression Visibility Wind Speed Wind Dir Waves Ship Positions

Arklow Mill

Last reported at 2018-Jun-14 21:01 UTC. Time now 2018-Jun-22 05:48 UTC.
Position N 43°20' E 005°21'.

Length 137 m; draft 8.4 m.

Type: Ship. MMSI: 250002022.

Date/timePositionNaut miles runAvg speedWind from/ knotsBaromVisibWave heightAir tempDewpointWater temp
2018-Jun-14 21:01N 43°20' E 005°21'0 1.8
2018-Jun-14 20:53N 43°20' E 005°21'8 8.1
2018-Jun-14 19:50N 43°15' E 005°11'21010.9
2018-Jun-14 00:42N 40°20' E 002°36'511.8
2018-Jun-14 00:18N 40°16' E 002°33'19812.0
2018-Jun-13 07:49N 37°48' W 000°16'414.3
2018-Jun-13 07:30N 37°45' W 000°19'713.1
2018-Jun-13 07:00N 37°39' W 000°24'611.1
2018-Jun-13 06:30N 37°35' W 000°29'611.4
2018-Jun-13 06:00N 37°31' W 000°33'611.6
2018-Jun-13 05:30N 37°27' W 000°39'611.6
2018-Jun-13 05:00N 37°23' W 000°45'611.6
2018-Jun-13 04:29N 37°19' W 000°50'511.5
2018-Jun-13 04:00N 37°16' W 000°55'711.4
2018-Jun-13 03:24N 37°11' W 001°02'21411.6
2018-Jun-12 09:02N 35°56' W 005°11'214.4
2018-Jun-12 08:54N 35°56' W 005°13'411.0
2018-Jun-12 08:30N 35°54' W 005°18'1 1.4
2018-Jun-12 07:56N 35°54' W 005°19'0 0.0
2018-Jun-12 07:29N 35°54' W 005°19'0 0.0
2018-Jun-12 06:59N 35°54' W 005°19'0 0.0
2018-Jun-12 06:29N 35°54' W 005°19'0 0.0
2018-Jun-12 05:59N 35°54' W 005°19'0 0.0
2018-Jun-12 05:29N 35°54' W 005°19'0 0.0
2018-Jun-12 04:56N 35°54' W 005°19'0 0.0
2018-Jun-12 04:29N 35°54' W 005°19'0 0.3
2018-Jun-12 04:01N 35°54' W 005°19'1 1.8
2018-Jun-12 03:31N 35°55' W 005°19'0 0.4
2018-Jun-12 03:01N 35°55' W 005°19'0 0.1
2018-Jun-12 02:30N 35°55' W 005°19'0 0.3
2018-Jun-12 02:00N 35°55' W 005°19'0 0.0
2018-Jun-12 01:29N 35°55' W 005°19'0 0.0
2018-Jun-12 00:59N 35°55' W 005°19'0 0.0
2018-Jun-12 00:29N 35°55' W 005°19'0 0.0
2018-Jun-11 23:59N 35°55' W 005°19'0 0.1
2018-Jun-11 23:29N 35°55' W 005°19'0 0.0
2018-Jun-11 22:59N 35°55' W 005°19'2 3.4
2018-Jun-11 22:30N 35°56' W 005°20'612.3
2018-Jun-11 22:01N 35°57' W 005°28'711.8
2018-Jun-11 21:23N 35°55' W 005°37'261 9.7
2018-Jun-10 18:25N 38°28' W 010°03'411.1
2018-Jun-10 18:01N 38°32' W 010°04'1211.0
2018-Jun-10 16:55N 38°44' W 010°07'1011.5
2018-Jun-10 16:01N 38°54' W 010°08'011.4
2018-Jun-10 16:01N 38°54' W 010°08'  
2018-Jun-07 22:52N 50°58' W 010°43'1111.4
2018-Jun-07 21:56N 51°08' W 010°43'711.2
2018-Jun-07 21:16N 51°16' W 010°43'411.0
2018-Jun-07 20:57N 51°19' W 010°43'611.0
2018-Jun-07 20:27N 51°25' W 010°44'1710.9
2018-Jun-07 18:52N 51°42' W 010°45'510.6
2018-Jun-07 18:26N 51°46' W 010°45'810.6
2018-Jun-07 17:40N 51°55' W 010°45'310.8
2018-Jun-07 17:24N 51°58' W 010°45'1011.1
2018-Jun-07 16:29N 52°07' W 010°42'711.2
2018-Jun-07 15:53N 52°12' W 010°33'1211.3
2018-Jun-07 14:52N 52°18' W 010°18'611.3
2018-Jun-07 14:18N 52°22' W 010°09'411.4
2018-Jun-07 13:58N 52°24' W 010°04'511.1
2018-Jun-07 13:30N 52°27' W 009°57'611.3
2018-Jun-07 13:00N 52°31' W 009°50'  
Track history (hours):
 
Tides and Currents Weather Stations Pressure Air Temp Water Temp Dewpoint Dewpoint Depression Visibility Wind Speed Wind Dir Waves Ship Positions

Arklow Mill

Last reported at 2018-Jun-14 21:01 UTC. Time now 2018-Jun-22 05:48 UTC.
Position N 43°20' E 005°21'.

Length 137 m; draft 8.4 m.

Type: Ship. MMSI: 250002022.

Date/timePositionNaut miles runAvg speedWind from/ knotsBaromVisibWave heightAir tempDewpointWater temp
2018-Jun-14 21:01N 43°20' E 005°21'0 1.8
2018-Jun-14 20:53N 43°20' E 005°21'8 8.1
2018-Jun-14 19:50N 43°15' E 005°11'21010.9
2018-Jun-14 00:42N 40°20' E 002°36'511.8
2018-Jun-14 00:18N 40°16' E 002°33'19812.0
2018-Jun-13 07:49N 37°48' W 000°16'414.3
2018-Jun-13 07:30N 37°45' W 000°19'713.1
2018-Jun-13 07:00N 37°39' W 000°24'611.1
2018-Jun-13 06:30N 37°35' W 000°29'611.4
2018-Jun-13 06:00N 37°31' W 000°33'611.6
2018-Jun-13 05:30N 37°27' W 000°39'611.6
2018-Jun-13 05:00N 37°23' W 000°45'611.6
2018-Jun-13 04:29N 37°19' W 000°50'511.5
2018-Jun-13 04:00N 37°16' W 000°55'711.4
2018-Jun-13 03:24N 37°11' W 001°02'21411.6
2018-Jun-12 09:02N 35°56' W 005°11'214.4
2018-Jun-12 08:54N 35°56' W 005°13'411.0
2018-Jun-12 08:30N 35°54' W 005°18'1 1.4
2018-Jun-12 07:56N 35°54' W 005°19'0 0.0
2018-Jun-12 07:29N 35°54' W 005°19'0 0.0
2018-Jun-12 06:59N 35°54' W 005°19'0 0.0
2018-Jun-12 06:29N 35°54' W 005°19'0 0.0
2018-Jun-12 05:59N 35°54' W 005°19'0 0.0
2018-Jun-12 05:29N 35°54' W 005°19'0 0.0
2018-Jun-12 04:56N 35°54' W 005°19'0 0.0
2018-Jun-12 04:29N 35°54' W 005°19'0 0.3
2018-Jun-12 04:01N 35°54' W 005°19'1 1.8
2018-Jun-12 03:31N 35°55' W 005°19'0 0.4
2018-Jun-12 03:01N 35°55' W 005°19'0 0.1
2018-Jun-12 02:30N 35°55' W 005°19'0 0.3
2018-Jun-12 02:00N 35°55' W 005°19'0 0.0
2018-Jun-12 01:29N 35°55' W 005°19'0 0.0
2018-Jun-12 00:59N 35°55' W 005°19'0 0.0
2018-Jun-12 00:29N 35°55' W 005°19'0 0.0
2018-Jun-11 23:59N 35°55' W 005°19'0 0.1
2018-Jun-11 23:29N 35°55' W 005°19'0 0.0
2018-Jun-11 22:59N 35°55' W 005°19'2 3.4
2018-Jun-11 22:30N 35°56' W 005°20'612.3
2018-Jun-11 22:01N 35°57' W 005°28'711.8
2018-Jun-11 21:23N 35°55' W 005°37'261 9.7
2018-Jun-10 18:25N 38°28' W 010°03'411.1
2018-Jun-10 18:01N 38°32' W 010°04'1211.0
2018-Jun-10 16:55N 38°44' W 010°07'1011.5
2018-Jun-10 16:01N 38°54' W 010°08'011.4
2018-Jun-10 16:01N 38°54' W 010°08'  
2018-Jun-07 22:52N 50°58' W 010°43'1111.4
2018-Jun-07 21:56N 51°08' W 010°43'711.2
2018-Jun-07 21:16N 51°16' W 010°43'411.0
2018-Jun-07 20:57N 51°19' W 010°43'611.0
2018-Jun-07 20:27N 51°25' W 010°44'1710.9
2018-Jun-07 18:52N 51°42' W 010°45'510.6
2018-Jun-07 18:26N 51°46' W 010°45'810.6
2018-Jun-07 17:40N 51°55' W 010°45'310.8
2018-Jun-07 17:24N 51°58' W 010°45'1011.1
2018-Jun-07 16:29N 52°07' W 010°42'711.2
2018-Jun-07 15:53N 52°12' W 010°33'1211.3
2018-Jun-07 14:52N 52°18' W 010°18'611.3
2018-Jun-07 14:18N 52°22' W 010°09'411.4
2018-Jun-07 13:58N 52°24' W 010°04'511.1
2018-Jun-07 13:30N 52°27' W 009°57'611.3
2018-Jun-07 13:00N 52°31' W 009°50'  

Dump ship's entire track history